createdAt,value
2019-03-10T00:00:20.947Z,75.9
2019-03-10T00:01:20.947Z,75.82
2019-03-10T00:02:20.937Z,75.86
2019-03-10T00:03:20.950Z,75.92
2019-03-10T00:04:20.969Z,75.9
2019-03-10T00:05:20.936Z,75.88
2019-03-10T00:06:20.958Z,75.93
2019-03-10T00:07:20.929Z,76.04
2019-03-10T00:08:20.946Z,76.12
2019-03-10T00:09:20.993Z,75.98
2019-03-10T00:10:20.925Z,76.05
2019-03-10T00:11:20.946Z,75.78
2019-03-10T00:12:20.952Z,75.78
2019-03-10T00:13:20.945Z,75.88
2019-03-10T00:14:21.158Z,75.91
2019-03-10T00:15:20.926Z,75.87
2019-03-10T00:16:20.996Z,75.98
2019-03-10T00:17:20.936Z,76.02
2019-03-10T00:18:20.930Z,75.99
2019-03-10T00:19:20.952Z,76
2019-03-10T00:20:20.910Z,75.93
2019-03-10T00:21:20.925Z,76.01
2019-03-10T00:22:20.923Z,76.05
2019-03-10T00:23:20.927Z,76.18
2019-03-10T00:24:20.906Z,76.23
2019-03-10T00:25:20.923Z,76.14
2019-03-10T00:26:21.184Z,76.26
2019-03-10T00:27:20.937Z,76.37
2019-03-10T00:28:20.929Z,76.38
2019-03-10T00:29:20.907Z,76.53
2019-03-10T00:30:20.927Z,76.38
2019-03-10T00:31:20.902Z,76.44
2019-03-10T00:32:20.909Z,76.64
2019-03-10T00:33:20.900Z,76.51
2019-03-10T00:34:20.893Z,76.6
2019-03-10T00:35:20.894Z,76.7
2019-03-10T00:36:21.203Z,76.69
2019-03-10T00:37:20.905Z,76.6
2019-03-10T00:38:21.020Z,76.62
2019-03-10T00:39:20.899Z,77.06
2019-03-10T00:40:20.904Z,77.17
2019-03-10T00:41:20.890Z,77.06
2019-03-10T00:42:20.919Z,77.04
2019-03-10T00:43:20.888Z,77.17
2019-03-10T00:44:20.919Z,77.1
2019-03-10T00:45:20.912Z,77.25
2019-03-10T00:46:20.878Z,77.18
2019-03-10T00:47:20.888Z,77.46
2019-03-10T00:48:20.887Z,77.56
2019-03-10T00:49:20.886Z,77.93
2019-03-10T00:50:20.882Z,77.93
2019-03-10T00:51:20.889Z,78.41
2019-03-10T00:52:20.876Z,78.26
2019-03-10T00:53:20.889Z,78.2
2019-03-10T00:54:20.871Z,78.45
2019-03-10T00:55:20.869Z,78.36
2019-03-10T00:56:20.884Z,78.26
2019-03-10T00:57:20.879Z,78.05
2019-03-10T00:58:21.817Z,77.94
2019-03-10T00:59:20.883Z,78.37
2019-03-10T01:00:20.980Z,78.51
2019-03-10T01:01:20.870Z,78.56
2019-03-10T01:02:20.858Z,78.46
2019-03-10T01:03:20.864Z,78.62
2019-03-10T01:04:20.854Z,78.59
2019-03-10T01:05:20.901Z,78.87
2019-03-10T01:06:20.874Z,78.72
2019-03-10T01:07:20.877Z,78.55
2019-03-10T01:08:22.127Z,78.91
2019-03-10T01:09:20.870Z,78.82
2019-03-10T01:10:20.852Z,78.75
2019-03-10T01:11:20.853Z,79.07
2019-03-10T01:12:20.848Z,78.95
2019-03-10T01:13:20.856Z,78.87
2019-03-10T01:14:20.913Z,79.16
2019-03-10T01:15:20.863Z,79.25
2019-03-10T01:16:20.855Z,79.08
2019-03-10T01:17:20.897Z,79.5
2019-03-10T01:18:20.856Z,79.29
2019-03-10T01:19:20.854Z,79.75
2019-03-10T01:20:20.867Z,79.55
2019-03-10T01:21:20.902Z,79.56
2019-03-10T01:22:20.834Z,79.42
2019-03-10T01:23:20.850Z,79.85
2019-03-10T01:24:20.850Z,79.71
2019-03-10T01:25:20.843Z,79.78
2019-03-10T01:26:20.857Z,79.75
2019-03-10T01:27:20.889Z,79.82
2019-03-10T01:28:20.865Z,79.92
2019-03-10T01:29:20.846Z,79.91
2019-03-10T01:30:20.839Z,80.14
2019-03-10T01:31:20.844Z,79.93
2019-03-10T01:32:20.844Z,80.26
2019-03-10T01:33:20.832Z,80.15
2019-03-10T01:34:20.827Z,80.2
2019-03-10T01:35:20.831Z,80.48
2019-03-10T01:36:20.817Z,80.18
2019-03-10T01:37:20.831Z,80.28
2019-03-10T01:38:20.824Z,80.21
2019-03-10T01:39:20.870Z,80.19
2019-03-10T01:40:20.832Z,80.59
2019-03-10T01:41:20.820Z,80.12
2019-03-10T01:42:21.109Z,80.2
2019-03-10T01:43:20.812Z,80.25
2019-03-10T01:44:20.805Z,80.23
2019-03-10T01:45:20.826Z,80.06
2019-03-10T01:46:20.807Z,80.4
2019-03-10T01:47:20.808Z,80.02
2019-03-10T01:48:20.813Z,80.18
2019-03-10T01:49:20.800Z,80.08
2019-03-10T01:50:20.804Z,80.16
2019-03-10T01:51:20.810Z,80.3
2019-03-10T01:52:20.814Z,80.8
2019-03-10T01:53:25.404Z,80.57
2019-03-10T01:54:20.858Z,80.55
2019-03-10T01:55:20.822Z,80.35
2019-03-10T01:56:20.787Z,80.5
2019-03-10T01:57:20.796Z,80.44
2019-03-10T01:58:20.790Z,80.54
2019-03-10T01:59:20.796Z,80.43
2019-03-10T02:00:20.820Z,80.35
2019-03-10T02:01:20.780Z,80.5
2019-03-10T02:02:25.406Z,80.55
2019-03-10T02:03:20.790Z,80.54
2019-03-10T02:04:20.780Z,80.97
2019-03-10T02:05:20.779Z,81.11
2019-03-10T02:06:20.795Z,81.14
2019-03-10T02:07:20.817Z,81.29
2019-03-10T02:08:20.781Z,81.25
2019-03-10T02:09:20.774Z,81.1
2019-03-10T02:10:20.761Z,80.9
2019-03-10T02:11:20.782Z,80.99
2019-03-10T02:12:20.760Z,80.82
2019-03-10T02:13:20.773Z,81.19
2019-03-10T02:14:20.780Z,81.29
2019-03-10T02:15:20.773Z,80.85
2019-03-10T02:16:20.773Z,80.88
2019-03-10T02:17:20.779Z,81.09
2019-03-10T02:18:20.760Z,81.18
2019-03-10T02:19:20.763Z,81.56
2019-03-10T02:20:20.773Z,81.92
2019-03-10T02:21:20.752Z,81.66
2019-03-10T02:22:20.760Z,81.54
2019-03-10T02:23:20.756Z,81.66
2019-03-10T02:24:23.868Z,82.11
2019-03-10T02:25:20.794Z,81.75
2019-03-10T02:26:20.786Z,82.04
2019-03-10T02:27:20.773Z,82.97
2019-03-10T02:28:20.754Z,83.2
2019-03-10T02:29:20.835Z,83.37
2019-03-10T02:30:20.756Z,83.96
2019-03-10T02:31:20.744Z,83.21
2019-03-10T02:32:20.742Z,83.56
2019-03-10T02:33:20.741Z,84.23
2019-03-10T02:34:20.744Z,84.17
2019-03-10T02:35:20.730Z,83.71
2019-03-10T02:36:20.727Z,83.5
2019-03-10T02:37:20.744Z,83.84
2019-03-10T02:38:20.731Z,84.11
2019-03-10T02:39:20.737Z,84.46
2019-03-10T02:40:20.738Z,84.03
2019-03-10T02:41:20.730Z,84.32
2019-03-10T02:42:20.725Z,84.1
2019-03-10T02:43:20.738Z,84.43
2019-03-10T02:44:20.721Z,84.26
2019-03-10T02:45:20.749Z,84.28
2019-03-10T02:46:20.729Z,84.29
2019-03-10T02:47:22.179Z,83.9
2019-03-10T02:48:20.713Z,84.05
2019-03-10T02:49:20.711Z,84.3
2019-03-10T02:50:20.729Z,84.43
2019-03-10T02:51:20.859Z,84.5
2019-03-10T02:52:20.722Z,84.62
2019-03-10T02:53:20.756Z,84.3
2019-03-10T02:54:20.723Z,84.56
2019-03-10T02:55:20.751Z,84.57
2019-03-10T02:56:20.727Z,84.94
2019-03-10T02:57:20.732Z,84.42
2019-03-10T02:58:20.720Z,84.49
2019-03-10T02:59:20.698Z,84.11
2019-03-10T03:00:20.708Z,84.96
2019-03-10T03:01:20.718Z,84.52
2019-03-10T03:02:20.717Z,84.19
2019-03-10T03:03:20.697Z,83.95
2019-03-10T03:04:20.727Z,84.37
2019-03-10T03:05:20.693Z,85.12
2019-03-10T03:06:20.707Z,84.83
2019-03-10T03:07:20.697Z,84.9
2019-03-10T03:08:20.758Z,85.09
2019-03-10T03:09:20.708Z,84.98
2019-03-10T03:10:20.677Z,85.06
2019-03-10T03:11:20.686Z,85.21
2019-03-10T03:12:20.692Z,85.18
2019-03-10T03:13:20.693Z,85.7
2019-03-10T03:14:20.707Z,85.62
2019-03-10T03:15:20.675Z,85.41
2019-03-10T03:16:20.673Z,85.01
2019-03-10T03:17:20.674Z,85.12
2019-03-10T03:18:20.677Z,85.63
2019-03-10T03:19:20.670Z,85.44
2019-03-10T03:20:20.735Z,85.62
2019-03-10T03:21:20.691Z,84.83
2019-03-10T03:22:20.703Z,84.81
2019-03-10T03:23:20.667Z,85.66
2019-03-10T03:24:20.699Z,84.83
2019-03-10T03:25:20.677Z,85.2
2019-03-10T03:26:20.691Z,85.24
2019-03-10T03:27:20.663Z,84.92
2019-03-10T03:28:20.703Z,85.14
2019-03-10T03:29:20.689Z,86.21
2019-03-10T03:30:20.663Z,85.23
2019-03-10T03:31:20.655Z,85.23
2019-03-10T03:32:20.667Z,85.32
2019-03-10T03:33:20.674Z,85.63
2019-03-10T03:34:20.658Z,85.6
2019-03-10T03:35:20.658Z,85.38
2019-03-10T03:36:20.666Z,86.2
2019-03-10T03:37:20.709Z,86
2019-03-10T03:38:20.667Z,85.69
2019-03-10T03:39:20.657Z,85.99
2019-03-10T03:40:20.654Z,85.7
2019-03-10T03:41:20.653Z,85.74
2019-03-10T03:42:20.651Z,85.56
2019-03-10T03:43:20.636Z,86.03
2019-03-10T03:44:20.683Z,86.18
2019-03-10T03:45:20.647Z,86.02
2019-03-10T03:46:20.667Z,86.53
2019-03-10T03:47:20.665Z,86.77
2019-03-10T03:48:20.652Z,86.71
2019-03-10T03:49:20.636Z,86.97
2019-03-10T03:50:20.639Z,87.59
2019-03-10T03:51:20.653Z,87.79
2019-03-10T03:52:20.875Z,87.93
2019-03-10T03:53:20.636Z,87.35
2019-03-10T03:54:20.637Z,87.79
2019-03-10T03:55:20.626Z,87.86
2019-03-10T03:56:20.634Z,88.25
2019-03-10T03:57:20.633Z,88.75
2019-03-10T03:58:20.625Z,88.46
2019-03-10T03:59:20.618Z,88.77
2019-03-10T04:00:20.627Z,88.07
2019-03-10T04:01:20.633Z,89
2019-03-10T04:02:20.615Z,89.02
2019-03-10T04:03:20.620Z,89.54
2019-03-10T04:04:20.613Z,89.65
2019-03-10T04:05:20.626Z,89.5
2019-03-10T04:06:20.617Z,89.57
2019-03-10T04:07:20.615Z,89.65
2019-03-10T04:08:20.633Z,89.4
2019-03-10T04:09:20.648Z,89.82
2019-03-10T04:10:20.600Z,90.08
2019-03-10T04:11:20.601Z,89.7
2019-03-10T04:12:20.609Z,89.05
2019-03-10T04:13:20.819Z,89.61
2019-03-10T04:14:20.875Z,89.89
2019-03-10T04:15:20.592Z,89.68
2019-03-10T04:16:20.654Z,89.78
2019-03-10T04:17:20.615Z,89.94
2019-03-10T04:18:20.604Z,89.44
2019-03-10T04:19:20.600Z,89.11
2019-03-10T04:20:20.592Z,89.29
2019-03-10T04:21:20.578Z,89.35
2019-03-10T04:22:20.583Z,89.48
2019-03-10T04:23:20.608Z,89.72
2019-03-10T04:24:20.590Z,89.59
2019-03-10T04:25:20.590Z,89.23
2019-03-10T04:26:20.590Z,89.04
2019-03-10T04:27:20.599Z,89.23
2019-03-10T04:28:20.579Z,89.06
2019-03-10T04:29:21.650Z,89.1
2019-03-10T04:30:20.575Z,89.41
2019-03-10T04:31:20.591Z,89.55
2019-03-10T04:32:20.567Z,89.35
2019-03-10T04:33:20.578Z,88.87
2019-03-10T04:34:20.587Z,88.84
2019-03-10T04:35:20.748Z,89.14
2019-03-10T04:36:20.597Z,89.1
2019-03-10T04:37:20.580Z,88.98
2019-03-10T04:38:20.590Z,88.85
2019-03-10T04:39:20.590Z,89.01
2019-03-10T04:40:20.601Z,88.66
2019-03-10T04:41:20.565Z,89.31
2019-03-10T04:42:20.590Z,88.86
2019-03-10T04:43:20.659Z,89.21
2019-03-10T04:44:20.566Z,88.68
2019-03-10T04:45:20.584Z,88.63
2019-03-10T04:46:20.563Z,88.63
2019-03-10T04:47:20.558Z,89.12
2019-03-10T04:48:20.557Z,89.33
2019-03-10T04:49:20.570Z,89.29
2019-03-10T04:50:20.544Z,88.79
2019-03-10T04:51:20.558Z,89.24
2019-03-10T04:52:20.563Z,89.05
2019-03-10T04:53:20.564Z,88.93
2019-03-10T04:54:20.561Z,88.86
2019-03-10T04:55:20.564Z,88.72
2019-03-10T04:56:20.559Z,88.7
2019-03-10T04:57:20.553Z,88.76
2019-03-10T04:58:20.553Z,88.94
2019-03-10T04:59:20.536Z,89.08
2019-03-10T05:00:20.826Z,89.12
2019-03-10T05:01:20.565Z,89.07
2019-03-10T05:02:20.556Z,89.05
2019-03-10T05:03:20.546Z,88.95
2019-03-10T05:04:20.551Z,88.74
2019-03-10T05:05:20.556Z,89.11
2019-03-10T05:06:20.697Z,89.06
2019-03-10T05:07:20.701Z,89.18
2019-03-10T05:08:20.528Z,89.09
2019-03-10T05:09:20.529Z,89.11
2019-03-10T05:10:20.528Z,89.08
2019-03-10T05:11:20.517Z,89.26
2019-03-10T05:12:20.515Z,89.01
2019-03-10T05:13:20.522Z,88.93
2019-03-10T05:14:20.520Z,88.87
2019-03-10T05:15:20.563Z,89.27
2019-03-10T05:16:20.617Z,89.05
2019-03-10T05:17:20.518Z,88.95
2019-03-10T05:18:20.526Z,88.97
2019-03-10T05:19:20.508Z,88.98
2019-03-10T05:20:20.520Z,89.09
2019-03-10T05:21:20.534Z,89.11
2019-03-10T05:22:20.513Z,89.34
2019-03-10T05:23:20.515Z,89.25
2019-03-10T05:24:20.530Z,88.98
2019-03-10T05:25:20.500Z,88.72
2019-03-10T05:26:20.506Z,89.02
2019-03-10T05:27:20.496Z,89.3
2019-03-10T05:28:20.600Z,89.48
2019-03-10T05:29:20.526Z,89.44
2019-03-10T05:30:20.523Z,89.57
2019-03-10T05:31:20.516Z,89.42
2019-03-10T05:32:20.505Z,89.03
2019-03-10T05:33:20.505Z,89.17
2019-03-10T05:34:20.506Z,89.09
2019-03-10T05:35:20.504Z,89.14
2019-03-10T05:36:20.493Z,88.86
2019-03-10T05:37:20.492Z,89.01
2019-03-10T05:38:20.498Z,88.98
2019-03-10T05:39:20.487Z,88.89
2019-03-10T05:40:20.489Z,89.34
2019-03-10T05:41:20.493Z,89.03
2019-03-10T05:42:20.525Z,89.58
2019-03-10T05:43:20.503Z,89.76
2019-03-10T05:44:20.534Z,89.6
2019-03-10T05:45:20.494Z,89.75
2019-03-10T05:46:20.493Z,89.58
2019-03-10T05:47:20.477Z,89.61
2019-03-10T05:48:20.482Z,89.68
2019-03-10T05:49:20.505Z,89.66
2019-03-10T05:50:20.485Z,89.68
2019-03-10T05:51:20.483Z,89.63
2019-03-10T05:52:20.475Z,89.81
2019-03-10T05:53:20.479Z,90.19
2019-03-10T05:54:20.473Z,90.21
2019-03-10T05:55:20.501Z,90.3
2019-03-10T05:56:20.454Z,90.47
2019-03-10T05:57:20.477Z,90.61
2019-03-10T05:58:20.458Z,90.73
2019-03-10T05:59:20.491Z,90.28
2019-03-10T06:00:20.512Z,90.03
2019-03-10T06:01:20.468Z,90.52
2019-03-10T06:02:20.470Z,90.33
2019-03-10T06:03:20.469Z,90.05
2019-03-10T06:04:20.455Z,90.35
2019-03-10T06:05:20.463Z,90.53
2019-03-10T06:06:20.476Z,90.45
2019-03-10T06:07:20.448Z,90.66
2019-03-10T06:08:20.508Z,90.86
2019-03-10T06:09:20.455Z,90.72
2019-03-10T06:10:20.448Z,90.81
2019-03-10T06:11:20.526Z,91.04
2019-03-10T06:12:20.523Z,91.11
2019-03-10T06:13:20.455Z,91.2
2019-03-10T06:14:20.495Z,90.89
2019-03-10T06:15:20.523Z,90.95
2019-03-10T06:16:20.457Z,91.02
2019-03-10T06:17:21.436Z,91.35
2019-03-10T06:18:20.438Z,91.13
2019-03-10T06:19:20.605Z,91.47
2019-03-10T06:20:20.447Z,91.73
2019-03-10T06:21:20.439Z,91.95
2019-03-10T06:22:20.491Z,91.95
2019-03-10T06:23:20.468Z,91.89
2019-03-10T06:24:20.442Z,91.86
2019-03-10T06:25:20.447Z,92
2019-03-10T06:26:20.425Z,91.8
2019-03-10T06:27:20.439Z,91.86
2019-03-10T06:28:20.452Z,91.95
2019-03-10T06:29:20.448Z,91.89
2019-03-10T06:30:20.421Z,91.58
2019-03-10T06:31:20.461Z,91.63
2019-03-10T06:32:20.427Z,91.79
2019-03-10T06:33:20.513Z,91.87
2019-03-10T06:34:20.646Z,92.03
2019-03-10T06:35:20.419Z,92.2
2019-03-10T06:36:20.441Z,92.02
2019-03-10T06:37:20.513Z,91.7
2019-03-10T06:38:20.464Z,91.48
2019-03-10T06:39:20.414Z,91.71
2019-03-10T06:40:28.335Z,92.4
2019-03-10T06:41:20.449Z,91.9
2019-03-10T06:42:20.411Z,91.85
2019-03-10T06:43:20.414Z,91.66
2019-03-10T06:44:21.130Z,91.8
2019-03-10T06:45:20.400Z,91.85
2019-03-10T06:46:20.423Z,91.62
2019-03-10T06:47:20.391Z,92.34
2019-03-10T06:48:20.409Z,92.44
2019-03-10T06:49:20.392Z,92.6
2019-03-10T06:50:20.395Z,92.67
2019-03-10T06:51:20.396Z,92.25
2019-03-10T06:52:20.406Z,91.96
2019-03-10T06:53:20.390Z,91.79
2019-03-10T06:54:20.405Z,92.12
2019-03-10T06:55:20.460Z,92.24
2019-03-10T06:56:20.394Z,92.68
2019-03-10T06:57:20.405Z,92.41
2019-03-10T06:58:20.376Z,92.78
2019-03-10T06:59:20.395Z,92.88
2019-03-10T07:00:20.392Z,93.12
2019-03-10T07:01:20.418Z,93.06
2019-03-10T07:02:20.431Z,92.97
2019-03-10T07:03:20.396Z,93.06
2019-03-10T07:04:20.382Z,93.21
2019-03-10T07:05:20.399Z,93.6
2019-03-10T07:06:20.377Z,94.11
2019-03-10T07:07:20.384Z,93.9
2019-03-10T07:08:20.384Z,94
2019-03-10T07:09:20.390Z,93.44
2019-03-10T07:10:20.386Z,93.96
2019-03-10T07:11:20.364Z,93.92
2019-03-10T07:12:20.366Z,93.69
2019-03-10T07:13:20.366Z,94.17
2019-03-10T07:14:20.362Z,94.89
2019-03-10T07:15:20.372Z,94.4
2019-03-10T07:16:20.363Z,94.41
2019-03-10T07:17:20.605Z,94.14
2019-03-10T07:18:20.379Z,94.15
2019-03-10T07:19:20.381Z,93.89
2019-03-10T07:20:20.354Z,94.67
2019-03-10T07:21:20.382Z,94.8
2019-03-10T07:22:20.359Z,95.18
2019-03-10T07:23:20.357Z,94.31
2019-03-10T07:24:20.360Z,94.65
2019-03-10T07:25:20.374Z,94.28
2019-03-10T07:26:20.382Z,94.74
2019-03-10T07:27:20.372Z,94.68
2019-03-10T07:28:20.342Z,94.73
2019-03-10T07:29:20.345Z,95.52
2019-03-10T07:30:20.344Z,95.21
2019-03-10T07:31:20.346Z,95.07
2019-03-10T07:32:20.346Z,95.52
2019-03-10T07:33:20.401Z,95.54
2019-03-10T07:34:20.380Z,95.39
2019-03-10T07:35:20.345Z,95.61
2019-03-10T07:36:20.341Z,96.53
2019-03-10T07:37:20.333Z,96.39
2019-03-10T07:38:20.323Z,96.64
2019-03-10T07:39:20.373Z,96.66
2019-03-10T07:40:20.330Z,97
2019-03-10T07:41:20.357Z,97.31
2019-03-10T07:42:20.393Z,97.27
2019-03-10T07:43:20.341Z,97.26
2019-03-10T07:44:20.337Z,97.53
2019-03-10T07:45:20.325Z,97.08
2019-03-10T07:46:20.321Z,97.21
2019-03-10T07:47:20.322Z,97
2019-03-10T07:48:20.322Z,97.23
2019-03-10T07:49:20.378Z,97.26
2019-03-10T07:50:20.322Z,96.81
2019-03-10T07:51:20.321Z,96.94
2019-03-10T07:52:20.794Z,97.11
2019-03-10T07:53:20.307Z,96.45
2019-03-10T07:54:20.313Z,96.54
2019-03-10T07:55:20.291Z,96.73
2019-03-10T07:56:20.306Z,96.65
2019-03-10T07:57:20.311Z,96.76
2019-03-10T07:58:20.307Z,96.61
2019-03-10T07:59:20.306Z,96.23
2019-03-10T08:00:20.303Z,96.7
2019-03-10T08:01:20.388Z,96.74
2019-03-10T08:02:20.291Z,96.97
2019-03-10T08:03:20.292Z,96.85
2019-03-10T08:04:20.295Z,96.84
2019-03-10T08:05:20.321Z,96.75
2019-03-10T08:06:20.288Z,96.1
2019-03-10T08:07:20.327Z,96.58
2019-03-10T08:08:20.334Z,96.39
2019-03-10T08:09:20.326Z,96.08
2019-03-10T08:10:20.322Z,96.78
2019-03-10T08:11:20.302Z,96.65
2019-03-10T08:12:20.280Z,96.67
2019-03-10T08:13:20.310Z,97.01
2019-03-10T08:14:20.290Z,97.02
2019-03-10T08:15:20.376Z,96.88
2019-03-10T08:16:20.300Z,96.89
2019-03-10T08:17:20.344Z,96.52
2019-03-10T08:18:20.283Z,97.21
2019-03-10T08:19:20.281Z,97.17
2019-03-10T08:20:20.282Z,97.26
2019-03-10T08:21:20.303Z,96.79
2019-03-10T08:22:20.464Z,97.19
2019-03-10T08:23:20.327Z,97.23
2019-03-10T08:24:20.308Z,97.22
2019-03-10T08:25:20.328Z,97.27
2019-03-10T08:26:20.282Z,96.77
2019-03-10T08:27:20.283Z,97.29
2019-03-10T08:28:20.552Z,96.46
2019-03-10T08:29:20.264Z,97.3
2019-03-10T08:30:20.261Z,97.21
2019-03-10T08:31:20.257Z,97.04
2019-03-10T08:32:20.259Z,97.28
2019-03-10T08:33:20.276Z,96.89
2019-03-10T08:34:20.291Z,97.03
2019-03-10T08:35:20.260Z,97.28
2019-03-10T08:36:20.254Z,97.41
2019-03-10T08:37:20.252Z,96.94
2019-03-10T08:38:20.277Z,96.67
2019-03-10T08:39:20.266Z,96.82
2019-03-10T08:40:20.248Z,97.28
2019-03-10T08:41:20.246Z,97.06
2019-03-10T08:42:20.883Z,97.01
2019-03-10T08:43:20.241Z,96.96
2019-03-10T08:44:20.304Z,96.82
2019-03-10T08:45:20.244Z,97.48
2019-03-10T08:46:20.238Z,97.05
2019-03-10T08:47:20.289Z,96.57
2019-03-10T08:48:20.257Z,97.2
2019-03-10T08:49:20.247Z,97.04
2019-03-10T08:50:20.249Z,97
2019-03-10T08:51:20.231Z,97.11
2019-03-10T08:52:20.255Z,96.96
2019-03-10T08:53:20.239Z,96.48
2019-03-10T08:54:20.226Z,96.37
2019-03-10T08:55:20.228Z,96.64
2019-03-10T08:56:20.229Z,96.63
2019-03-10T08:57:20.231Z,96.84
2019-03-10T08:58:20.251Z,96.12
2019-03-10T08:59:20.253Z,96.14
2019-03-10T09:00:20.221Z,96.09
2019-03-10T09:01:20.217Z,96.06
2019-03-10T09:02:20.238Z,95.87
2019-03-10T09:03:20.218Z,95.98
2019-03-10T09:04:20.214Z,96.09
2019-03-10T09:05:20.216Z,96.45
2019-03-10T09:06:20.518Z,96.49
2019-03-10T09:07:20.203Z,96.43
2019-03-10T09:08:20.244Z,96.1
2019-03-10T09:09:20.291Z,95.99
2019-03-10T09:10:20.220Z,96.15
2019-03-10T09:11:20.206Z,95.81
2019-03-10T09:12:20.213Z,96.1
2019-03-10T09:13:20.199Z,95.62
2019-03-10T09:14:20.212Z,95.77
2019-03-10T09:15:20.227Z,96.02
2019-03-10T09:16:20.188Z,95.74
2019-03-10T09:17:20.182Z,95.86
2019-03-10T09:18:20.278Z,95.68
2019-03-10T09:19:20.215Z,95.4
2019-03-10T09:20:20.205Z,95.17
2019-03-10T09:21:20.195Z,95.8
2019-03-10T09:22:20.233Z,95.67
2019-03-10T09:23:20.199Z,95.23
2019-03-10T09:24:20.227Z,95.54
2019-03-10T09:25:20.194Z,95.38
2019-03-10T09:26:20.202Z,94.9
2019-03-10T09:27:20.215Z,95.22
2019-03-10T09:28:20.387Z,95.18
2019-03-10T09:29:20.209Z,95.19
2019-03-10T09:30:20.185Z,95.03
2019-03-10T09:31:20.196Z,95.33
2019-03-10T09:32:20.216Z,94.72
2019-03-10T09:33:20.210Z,95.22
2019-03-10T09:34:20.199Z,95.23
2019-03-10T09:35:20.191Z,95.02
2019-03-10T09:36:20.179Z,95.36
2019-03-10T09:37:20.195Z,95.24
2019-03-10T09:38:20.211Z,95.33
2019-03-10T09:39:20.235Z,94.74
2019-03-10T09:40:20.156Z,94.68
2019-03-10T09:41:20.161Z,94.38
2019-03-10T09:42:20.163Z,94.1
2019-03-10T09:43:20.169Z,94.38
2019-03-10T09:44:20.201Z,94.38
2019-03-10T09:45:20.200Z,94.21
2019-03-10T09:46:20.177Z,94.25
2019-03-10T09:47:20.188Z,94.21
2019-03-10T09:48:20.158Z,93.97
2019-03-10T09:49:20.336Z,93.93
2019-03-10T09:50:20.246Z,93.93
2019-03-10T09:51:20.177Z,93.8
2019-03-10T09:52:20.181Z,94
2019-03-10T09:53:20.241Z,93.89
2019-03-10T09:54:20.163Z,93.64
2019-03-10T09:55:20.164Z,92.75
2019-03-10T09:56:20.164Z,93
2019-03-10T09:57:20.194Z,93.18
2019-03-10T09:58:20.172Z,92.92
2019-03-10T09:59:20.174Z,92.76
2019-03-10T10:00:20.192Z,92.48
2019-03-10T10:01:20.242Z,92.07
2019-03-10T10:02:20.254Z,91.99
2019-03-10T10:03:20.160Z,92.24
2019-03-10T10:04:20.171Z,91.66
2019-03-10T10:05:20.127Z,92.09
2019-03-10T10:06:20.142Z,91.93
2019-03-10T10:07:20.143Z,91.26
2019-03-10T10:08:20.144Z,91.58
2019-03-10T10:09:20.170Z,91.64
2019-03-10T10:10:20.154Z,91.21
2019-03-10T10:11:20.180Z,91.72
2019-03-10T10:12:20.574Z,91.68
2019-03-10T10:13:20.172Z,91.65
2019-03-10T10:14:20.156Z,91.66
2019-03-10T10:15:20.136Z,91.32
2019-03-10T10:16:20.137Z,90.84
2019-03-10T10:17:20.140Z,91.24
2019-03-10T10:18:20.150Z,91.21
2019-03-10T10:19:20.122Z,90.5
2019-03-10T10:20:20.142Z,90.79
2019-03-10T10:21:20.131Z,90.72
2019-03-10T10:22:20.157Z,90.33
2019-03-10T10:23:20.141Z,90.52
2019-03-10T10:24:20.141Z,90.95
2019-03-10T10:25:20.139Z,90.81
2019-03-10T10:26:20.113Z,90.65
2019-03-10T10:27:20.366Z,90.12
2019-03-10T10:28:20.309Z,90.94
2019-03-10T10:29:20.114Z,90.81
2019-03-10T10:30:20.253Z,91.08
2019-03-10T10:31:20.166Z,90.43
2019-03-10T10:32:20.143Z,90.47
2019-03-10T10:33:20.339Z,89.58
2019-03-10T10:34:20.145Z,89.55
2019-03-10T10:35:20.102Z,89.25
2019-03-10T10:36:20.112Z,89.39
2019-03-10T10:37:20.129Z,89.56
2019-03-10T10:38:20.106Z,89.65
2019-03-10T10:39:20.162Z,88.73
2019-03-10T10:40:20.119Z,88.6
2019-03-10T10:41:20.136Z,88.66
2019-03-10T10:42:20.099Z,88.81
2019-03-10T10:43:20.084Z,88.01
2019-03-10T10:44:20.084Z,86.75
2019-03-10T10:45:20.108Z,86.79
2019-03-10T10:46:20.103Z,86.97
2019-03-10T10:47:20.111Z,87.2
2019-03-10T10:48:20.070Z,87.02
2019-03-10T10:49:20.088Z,86.36
2019-03-10T10:50:20.198Z,86.46
2019-03-10T10:51:20.110Z,86.57
2019-03-10T10:52:20.223Z,85.94
2019-03-10T10:53:21.462Z,85.54
2019-03-10T10:54:20.117Z,85.49
2019-03-10T10:55:20.272Z,85.78
2019-03-10T10:56:20.080Z,85.65
2019-03-10T10:57:20.130Z,86.18
2019-03-10T10:58:20.106Z,86.03
2019-03-10T10:59:20.088Z,86.42
2019-03-10T11:00:20.133Z,86.59
2019-03-10T11:01:20.089Z,85.8
2019-03-10T11:02:20.140Z,85.24
2019-03-10T11:03:20.095Z,84.86
2019-03-10T11:04:20.091Z,85.42
2019-03-10T11:05:20.173Z,85.96
2019-03-10T11:06:20.113Z,86.58
2019-03-10T11:07:20.066Z,85.99
2019-03-10T11:08:20.435Z,86.1
2019-03-10T11:09:20.086Z,86.59
2019-03-10T11:10:20.082Z,86.67
2019-03-10T11:11:20.092Z,86.59
2019-03-10T11:12:20.123Z,86.34
2019-03-10T11:13:20.102Z,86.02
2019-03-10T11:14:20.081Z,84.87
2019-03-10T11:15:20.084Z,84.95
2019-03-10T11:16:20.694Z,84.96
2019-03-10T11:17:20.125Z,84.52
2019-03-10T11:18:20.044Z,84.7
2019-03-10T11:19:20.058Z,84.44
2019-03-10T11:20:20.061Z,84.3
2019-03-10T11:21:20.039Z,84.27
2019-03-10T11:22:20.065Z,84.01
2019-03-10T11:23:20.038Z,83.78
2019-03-10T11:24:20.057Z,83.86
2019-03-10T11:25:20.030Z,84.03
2019-03-10T11:26:20.025Z,83.29
2019-03-10T11:27:20.074Z,83.69
2019-03-10T11:28:20.038Z,84.13
2019-03-10T11:29:20.092Z,84.3
2019-03-10T11:30:20.019Z,84.1
2019-03-10T11:31:20.106Z,83.69
2019-03-10T11:32:20.047Z,83.6
2019-03-10T11:33:20.094Z,84.28
2019-03-10T11:34:20.054Z,84.51
2019-03-10T11:35:20.019Z,84.71
2019-03-10T11:36:20.091Z,84.33
2019-03-10T11:37:20.249Z,85.06
2019-03-10T11:38:20.119Z,85.02
2019-03-10T11:39:20.067Z,84.77
2019-03-10T11:40:20.049Z,84.51
2019-03-10T11:41:20.052Z,84.45
2019-03-10T11:42:20.029Z,84.76
2019-03-10T11:43:22.591Z,85.15
2019-03-10T11:44:20.037Z,84.46
2019-03-10T11:45:20.032Z,84.78
2019-03-10T11:46:20.038Z,84.52
2019-03-10T11:47:20.027Z,83.73
2019-03-10T11:48:20.016Z,83.79
2019-03-10T11:49:20.043Z,83.85
2019-03-10T11:50:20.019Z,83.77
2019-03-10T11:51:20.053Z,83.57
2019-03-10T11:52:20.011Z,83.12
2019-03-10T11:53:19.995Z,83.5
2019-03-10T11:54:20.057Z,83.72
2019-03-10T11:55:20.043Z,84.04
2019-03-10T11:56:20.122Z,84.28
2019-03-10T11:57:20.059Z,83.91
2019-03-10T11:58:20.090Z,83.76
2019-03-10T11:59:20.041Z,84.48
2019-03-10T12:00:20.125Z,85.11
2019-03-10T12:01:20.001Z,85.28
2019-03-10T12:02:20.004Z,85.64
2019-03-10T12:03:19.990Z,85.75
2019-03-10T12:04:19.994Z,83.89
2019-03-10T12:05:19.983Z,84.62
2019-03-10T12:06:20.009Z,84.43
2019-03-10T12:07:20.011Z,84.36
2019-03-10T12:08:19.992Z,84.42
2019-03-10T12:09:20.050Z,84.27
2019-03-10T12:10:21.593Z,84.03
2019-03-10T12:11:20.001Z,83.26
2019-03-10T12:12:20.000Z,83.28
2019-03-10T12:13:19.989Z,82.17
2019-03-10T12:14:19.975Z,81.37
2019-03-10T12:15:20.009Z,80.54
2019-03-10T12:16:19.975Z,81.38
2019-03-10T12:17:20.047Z,81.4
2019-03-10T12:18:19.992Z,80.12
2019-03-10T12:19:19.969Z,80.5
2019-03-10T12:20:19.977Z,80.82
2019-03-10T12:21:20.309Z,80.34
2019-03-10T12:22:19.989Z,79.31
2019-03-10T12:23:19.990Z,79.76
2019-03-10T12:24:19.999Z,79.74
2019-03-10T12:25:19.975Z,78.05
2019-03-10T12:26:19.965Z,77.34
2019-03-10T12:27:19.976Z,77.36
2019-03-10T12:28:19.961Z,77.22
2019-03-10T12:29:20.014Z,77.43
2019-03-10T12:30:19.941Z,76.95
2019-03-10T12:31:19.983Z,75.9
2019-03-10T12:32:19.955Z,76.04
2019-03-10T12:33:20.020Z,76.2
2019-03-10T12:34:19.954Z,76.26
2019-03-10T12:35:19.948Z,74.59
2019-03-10T12:36:19.951Z,75
2019-03-10T12:37:19.963Z,74.68
2019-03-10T12:38:19.963Z,73.6
2019-03-10T12:39:19.978Z,74.19
2019-03-10T12:40:20.899Z,72.84
2019-03-10T12:41:19.957Z,73.16
2019-03-10T12:42:20.051Z,73.5
2019-03-10T12:43:19.943Z,73.06
2019-03-10T12:44:19.931Z,73
2019-03-10T12:45:19.934Z,73.97
2019-03-10T12:46:19.927Z,73.31
2019-03-10T12:47:19.922Z,73.22
2019-03-10T12:48:19.930Z,73.52
2019-03-10T12:49:19.930Z,72.93
2019-03-10T12:50:19.965Z,72.32
2019-03-10T12:51:19.935Z,72.3
2019-03-10T12:52:19.955Z,72.9
2019-03-10T12:53:19.926Z,70.98
2019-03-10T12:54:19.915Z,71.25
2019-03-10T12:55:19.908Z,69.62
2019-03-10T12:56:20.000Z,70.55